Vista Hermosa, Puerto Rico
Current Conditions -  °F | °C
As of 9:53 AM on Monday 24 Nov 2014 (Local Time) from TJNR Reporting Station
Clear Clear  
Wind Chill: 85°   Ceiling: Unl
Heat Index: 92°   Visibility: 10mi
Dew Point: 73°   Wind: 12mph
Humidity: 67%   Direction: 80°E
Pressure: 30.11"   Gusts: NA
Location:  18.1494°N, 65.8294°W
Report Text: TJNR 241353Z AUTO 08010KT 10SM CLR 29/23 A3011 RMK AO2 SLP194 T02940228 $
Loading
Personal Weather Stations






























Interactive Weather Map New forecast layout! Learn more

10-Day Weather Forecast

Advertisements
Track Severe Weather on mobile